Time;durP1;ratioP1;P1;durP2;ratioP2;P2;SDS_P1;SDS_P2;PMS_P1;PMS_P2;Temp;Humidity;BMP_temperature;BMP_pressure;BME280_temperature;BME280_humidity;BME280_pressure;Samples;Min_cycle;Max_cycle;Signal;HPM_P1;HPM_P2
2023/01/21 00:00:23;;;;;;;93.13;45.47;;;0.00;99.90;;;;;;5092267;28;20219;-70
2023/01/21 00:02:52;;;;;;;96.57;46.10;;;-0.10;99.90;;;;;;5091761;28;20822;-73
2023/01/21 00:05:21;;;;;;;103.10;48.90;;;-0.10;99.90;;;;;;5092009;28;20608;-74
2023/01/21 00:07:50;;;;;;;106.57;47.93;;;-0.10;99.90;;;;;;5092016;28;20197;-87
2023/01/21 00:10:20;;;;;;;99.17;46.53;;;-0.10;99.90;;;;;;5092064;28;20269;-70
2023/01/21 00:12:49;;;;;;;97.20;47.27;;;-0.10;99.90;;;;;;5095563;28;20661;-69
2023/01/21 00:15:18;;;;;;;100.27;45.97;;;-0.10;99.90;;;;;;5090139;28;20582;-72
2023/01/21 00:17:47;;;;;;;96.73;45.97;;;0.10;99.90;;;;;;5091771;28;20208;-74
2023/01/21 00:20:16;;;;;;;95.93;47.90;;;0.30;99.90;;;;;;5095374;28;20265;-69
2023/01/21 00:22:46;;;;;;;96.53;47.10;;;0.30;99.90;;;;;;5095457;28;20215;-70
2023/01/21 00:25:15;;;;;;;101.47;47.90;;;0.40;99.90;;;;;;5095508;28;20196;-75
2023/01/21 00:27:45;;;;;;;96.67;46.77;;;0.50;99.90;;;;;;5093243;28;20203;-69
2023/01/21 00:30:14;;;;;;;93.43;43.93;;;0.40;99.90;;;;;;5076529;28;20201;-69
2023/01/21 00:32:44;;;;;;;86.93;41.10;;;0.50;99.90;;;;;;5076634;28;20215;-70
2023/01/21 00:35:13;;;;;;;88.67;42.80;;;0.40;99.90;;;;;;5077080;28;20196;-77
2023/01/21 00:37:42;;;;;;;80.97;41.13;;;0.40;99.90;;;;;;5081031;28;20208;-70
2023/01/21 00:40:12;;;;;;;78.07;41.90;;;0.40;99.90;;;;;;5083244;28;20216;-80
2023/01/21 00:42:41;;;;;;;87.80;46.10;;;0.40;99.90;;;;;;5075462;28;20193;-89
2023/01/21 00:45:12;;;;;;;88.60;44.00;;;0.40;99.90;;;;;;5080167;28;20271;-70
2023/01/21 00:47:40;;;;;;;88.47;43.67;;;0.40;99.90;;;;;;5093623;28;20227;-77
2023/01/21 00:50:10;;;;;;;97.30;49.07;;;0.40;99.90;;;;;;5079929;28;20253;-72
2023/01/21 00:52:39;;;;;;;95.80;46.40;;;0.40;99.90;;;;;;5096690;28;20188;-71
2023/01/21 00:55:09;;;;;;;96.73;49.07;;;0.30;99.90;;;;;;5092732;28;20219;-71
2023/01/21 00:57:38;;;;;;;103.03;50.40;;;0.20;99.90;;;;;;5092925;28;20250;-70
2023/01/21 01:00:11;;;;;;;116.60;54.27;;;0.20;99.90;;;;;;5075154;28;20217;-70
2023/01/21 01:02:42;;;;;;;105.57;50.73;;;0.30;99.90;;;;;;5074749;28;20233;-68
2023/01/21 01:05:11;;;;;;;111.33;53.47;;;0.20;99.90;;;;;;5074061;28;20243;-69
2023/01/21 01:07:42;;;;;;;105.33;52.77;;;0.20;99.90;;;;;;5074368;28;20197;-70
2023/01/21 01:10:11;;;;;;;107.47;49.97;;;0.10;99.90;;;;;;5073932;28;20197;-70
2023/01/21 01:12:40;;;;;;;103.50;48.40;;;0.00;99.90;;;;;;5073974;28;20203;-82
2023/01/21 01:15:10;;;;;;;96.17;47.63;;;0.10;99.90;;;;;;5078712;28;20188;-85
2023/01/21 01:17:39;;;;;;;104.43;49.33;;;0.20;99.90;;;;;;5094382;28;20698;-72
2023/01/21 01:20:11;;;;;;;93.57;47.17;;;0.10;99.90;;;;;;5094172;28;20324;-73
2023/01/21 01:22:40;;;;;;;89.77;44.97;;;0.00;99.90;;;;;;5093644;28;20204;-74
2023/01/21 01:25:09;;;;;;;84.50;39.60;;;-0.10;99.90;;;;;;5093965;28;20189;-83
2023/01/21 01:27:38;;;;;;;79.10;39.07;;;-0.20;99.90;;;;;;5094424;28;20200;-69
2023/01/21 01:30:08;;;;;;;81.27;40.57;;;-0.20;99.90;;;;;;5095727;28;20211;-71
2023/01/21 01:32:38;;;;;;;74.07;37.67;;;-0.20;99.90;;;;;;5093344;28;20208;-84
2023/01/21 01:35:07;;;;;;;76.83;37.57;;;-0.30;99.90;;;;;;5075123;28;20296;-69
2023/01/21 01:37:37;;;;;;;78.10;38.20;;;-0.30;99.90;;;;;;5023579;28;20260;-70
2023/01/21 01:40:08;;;;;;;78.27;38.67;;;-0.30;99.90;;;;;;5073884;28;20587;-69
2023/01/21 01:42:37;;;;;;;68.13;35.50;;;-0.30;99.90;;;;;;5074106;28;20193;-69
2023/01/21 01:45:15;;;;;;;73.20;36.73;;;-0.30;99.90;;;;;;5078542;28;20658;-72
2023/01/21 01:47:47;;;;;;;68.73;33.93;;;-0.30;99.90;;;;;;5093696;28;20237;-76
2023/01/21 01:50:19;;;;;;;61.57;33.23;;;-0.30;99.90;;;;;;5075931;28;20365;-74
2023/01/21 01:52:50;;;;;;;70.60;32.77;;;-0.20;99.90;;;;;;5093932;28;20569;-73
2023/01/21 01:55:19;;;;;;;58.37;30.37;;;-0.20;99.90;;;;;;5091573;28;20222;-73
2023/01/21 01:57:52;;;;;;;64.50;30.60;;;-0.30;99.90;;;;;;5074751;28;20197;-70
2023/01/21 02:00:22;;;;;;;61.13;30.33;;;-0.30;99.90;;;;;;5093508;28;20205;-71
2023/01/21 02:05:37;;;;;;;55.70;28.93;;;-0.40;99.90;;;;;;5074730;28;20256;-69
2023/01/21 02:08:08;;;;;;;58.43;28.70;;;-0.50;99.90;;;;;;5098739;28;20226;-69
2023/01/21 02:10:37;;;;;;;60.63;28.40;;;-0.40;99.90;;;;;;5071315;28;20224;-70
2023/01/21 02:13:06;;;;;;;58.33;28.90;;;-0.40;99.90;;;;;;5076857;28;20245;-69
2023/01/21 02:15:44;;;;;;;55.53;29.60;;;-0.40;99.90;;;;;;5088625;28;20195;-69
2023/01/21 02:18:21;;;;;;;54.30;27.63;;;-0.30;99.90;;;;;;5084792;28;20573;-69
2023/01/21 02:21:21;;;;;;;54.33;27.80;;;-0.30;99.90;;;;;;5056368;28;20273;-70
2023/01/21 02:24:12;;;;;;;50.90;27.23;;;-0.20;99.90;;;;;;5072204;28;20200;-69
2023/01/21 02:27:09;;;;;;;50.40;27.07;;;-0.10;99.90;;;;;;5072355;28;20189;-71
2023/01/21 02:29:58;;;;;;;51.87;27.80;;;-0.20;99.90;;;;;;4990845;28;20219;-69
2023/01/21 02:33:13;;;;;;;59.50;27.87;;;-0.20;99.90;;;;;;5009859;28;20346;-69
2023/01/21 02:35:46;;;;;;;52.67;26.80;;;-0.20;99.90;;;;;;5009972;28;20230;-70
2023/01/21 02:38:26;;;;;;;51.60;27.70;;;-0.20;99.90;;;;;;4994016;28;20207;-69
2023/01/21 02:41:02;;;;;;;54.50;27.90;;;-0.30;99.90;;;;;;5010226;28;20237;-79
2023/01/21 02:43:43;;;;;;;54.23;28.87;;;-0.30;99.90;;;;;;5009686;28;20306;-69
2023/01/21 02:46:17;;;;;;;54.70;28.20;;;-0.30;99.90;;;;;;5009952;28;20210;-70
2023/01/21 02:48:55;;;;;;;55.93;28.47;;;-0.40;99.90;;;;;;5010135;28;20225;-69
2023/01/21 02:51:24;;;;;;;55.80;28.60;;;-0.40;99.90;;;;;;5010122;28;20209;-69
2023/01/21 02:53:53;;;;;;;58.20;29.00;;;-0.40;99.90;;;;;;5009859;28;20239;-70
2023/01/21 02:56:27;;;;;;;55.00;28.07;;;-0.40;99.90;;;;;;4993225;28;20277;-69
2023/01/21 02:58:59;;;;;;;51.17;26.77;;;-0.30;99.90;;;;;;5009881;28;20210;-70
2023/01/21 03:01:41;;;;;;;46.77;27.03;;;-0.30;99.90;;;;;;5009466;28;20234;-69
2023/01/21 03:04:33;;;;;;;48.73;25.17;;;-0.40;99.90;;;;;;5009799;28;20981;-70
2023/01/21 03:07:09;;;;;;;52.07;26.80;;;-0.30;99.90;;;;;;5036934;28;20295;-72
2023/01/21 03:09:38;;;;;;;56.07;27.73;;;-0.30;99.90;;;;;;5091687;28;20746;-71
2023/01/21 03:12:24;;;;;;;49.90;26.23;;;-0.30;99.90;;;;;;5073459;28;20203;-73
2023/01/21 03:17:54;;;;;;;47.47;25.87;;;-0.40;99.90;;;;;;5091711;28;20192;-71
2023/01/21 03:20:29;;;;;;;44.60;23.60;;;-0.40;99.90;;;;;;5091994;28;20657;-72
2023/01/21 03:23:03;;;;;;;45.87;25.20;;;-0.40;99.90;;;;;;5073493;28;20293;-70
2023/01/21 03:25:34;;;;;;;44.57;24.57;;;-0.50;99.90;;;;;;5091690;28;20211;-70
2023/01/21 03:28:09;;;;;;;45.47;25.00;;;-0.50;99.90;;;;;;5091462;28;20666;-70
2023/01/21 03:30:43;;;;;;;45.93;23.90;;;-0.40;99.90;;;;;;5091332;28;20204;-69
2023/01/21 03:33:15;;;;;;;48.27;23.70;;;-0.40;99.90;;;;;;5091556;28;20548;-69
2023/01/21 03:35:49;;;;;;;46.07;26.27;;;-0.40;99.90;;;;;;5091654;28;20222;-69
2023/01/21 03:38:25;;;;;;;44.53;24.57;;;-0.40;99.90;;;;;;5091473;28;20204;-73
2023/01/21 03:40:58;;;;;;;47.30;24.67;;;-0.40;99.90;;;;;;5091428;28;20214;-70
2023/01/21 03:43:28;;;;;;;52.37;25.17;;;-0.40;99.90;;;;;;5091264;28;20295;-69
2023/01/21 03:46:03;;;;;;;47.63;24.53;;;-0.40;99.90;;;;;;5091306;28;20211;-69
2023/01/21 03:48:38;;;;;;;46.57;23.90;;;-0.40;99.90;;;;;;5091320;28;20196;-69
2023/01/21 03:51:13;;;;;;;39.73;21.57;;;-0.30;99.90;;;;;;5091375;28;20196;-69
2023/01/21 03:53:43;;;;;;;37.23;22.17;;;-0.30;99.90;;;;;;5084343;28;20208;-69
2023/01/21 03:56:12;;;;;;;42.50;22.27;;;-0.20;99.90;;;;;;5082715;28;20204;-69
2023/01/21 03:58:40;;;;;;;36.50;20.53;;;-0.20;99.90;;;;;;5072390;28;20220;-69
2023/01/21 04:01:09;;;;;;;41.20;21.17;;;-0.10;99.90;;;;;;5089489;28;20196;-68
2023/01/21 04:03:39;;;;;;;40.63;20.87;;;-0.10;99.90;;;;;;5090958;28;20311;-69
2023/01/21 04:06:13;;;;;;;39.13;21.00;;;0.00;99.90;;;;;;5091299;28;20253;-68
2023/01/21 04:08:42;;;;;;;35.33;19.40;;;0.00;99.90;;;;;;5090938;28;20560;-68
2023/01/21 04:11:11;;;;;;;43.13;20.83;;;0.10;99.90;;;;;;5090825;28;20213;-68
2023/01/21 04:13:40;;;;;;;35.87;20.53;;;0.20;99.90;;;;;;5090983;28;20254;-78
2023/01/21 04:16:09;;;;;;;40.77;20.43;;;0.20;99.90;;;;;;5091011;28;20199;-69
2023/01/21 04:18:38;;;;;;;40.07;20.77;;;0.30;99.90;;;;;;5072382;28;20723;-68
2023/01/21 04:21:07;;;;;;;34.13;19.30;;;0.40;99.90;;;;;;5090900;28;20189;-73
2023/01/21 04:23:37;;;;;;;33.63;18.67;;;0.40;99.90;;;;;;5091088;28;20220;-70
2023/01/21 04:26:06;;;;;;;29.13;16.67;;;0.50;99.90;;;;;;5090732;28;20204;-68
2023/01/21 04:28:35;;;;;;;34.00;18.63;;;0.60;99.90;;;;;;5090897;28;20199;-69
2023/01/21 04:31:04;;;;;;;30.17;18.23;;;0.70;99.90;;;;;;5090064;28;20188;-70
2023/01/21 04:33:33;;;;;;;34.33;17.03;;;0.70;99.90;;;;;;5091142;28;20197;-68
2023/01/21 04:36:01;;;;;;;36.87;19.60;;;0.80;99.90;;;;;;5090825;28;20220;-68
2023/01/21 04:38:30;;;;;;;27.47;15.80;;;0.80;99.90;;;;;;5090678;28;20196;-69
2023/01/21 04:41:01;;;;;;;22.60;12.77;;;0.90;99.90;;;;;;5090942;28;20188;-68
2023/01/21 04:43:29;;;;;;;28.03;14.57;;;1.00;99.90;;;;;;5090502;28;20250;-69
2023/01/21 04:45:58;;;;;;;18.07;9.90;;;1.20;99.90;;;;;;5090799;28;20233;-73
2023/01/21 04:48:27;;;;;;;10.00;7.10;;;1.40;99.90;;;;;;5090498;28;20663;-69
2023/01/21 04:50:56;;;;;;;8.67;5.07;;;1.50;99.90;;;;;;5090915;28;20192;-69
2023/01/21 04:53:25;;;;;;;6.73;4.27;;;1.70;99.90;;;;;;5090853;28;20568;-70
2023/01/21 04:55:54;;;;;;;7.90;4.57;;;1.80;99.90;;;;;;5089101;28;20197;-69
2023/01/21 04:58:25;;;;;;;11.87;7.97;;;2.00;99.90;;;;;;5085836;28;20573;-69
2023/01/21 05:00:55;;;;;;;6.17;4.23;;;2.10;99.90;;;;;;5092405;28;20196;-70
2023/01/21 05:03:24;;;;;;;36.23;18.57;;;2.10;99.90;;;;;;5093448;28;20228;-70
2023/01/21 05:05:53;;;;;;;13.50;8.77;;;2.20;99.90;;;;;;5094363;28;20572;-71
2023/01/21 05:08:22;;;;;;;11.90;7.00;;;2.30;99.90;;;;;;5094063;28;20610;-71
2023/01/21 05:10:51;;;;;;;8.70;6.03;;;2.30;99.90;;;;;;5090223;28;20201;-69
2023/01/21 05:13:20;;;;;;;7.70;5.73;;;2.40;99.90;;;;;;5098075;28;20252;-71
2023/01/21 05:15:50;;;;;;;7.70;4.27;;;2.40;99.90;;;;;;5094046;28;20196;-70
2023/01/21 05:18:19;;;;;;;4.90;3.43;;;2.50;99.90;;;;;;5088315;28;20642;-72
2023/01/21 05:20:48;;;;;;;4.50;3.47;;;2.50;99.90;;;;;;5093913;28;20192;-70
2023/01/21 05:23:17;;;;;;;6.50;4.07;;;2.50;99.90;;;;;;5094129;28;20212;-76
2023/01/21 05:25:48;;;;;;;4.57;4.10;;;2.50;99.90;;;;;;5094169;28;20238;-80
2023/01/21 05:28:17;;;;;;;4.13;3.63;;;2.60;99.90;;;;;;5094197;28;20215;-70
2023/01/21 05:30:46;;;;;;;6.93;3.93;;;2.60;99.90;;;;;;5094623;28;20197;-75
2023/01/21 05:33:16;;;;;;;4.53;3.50;;;2.70;99.90;;;;;;5095483;28;20666;-71
2023/01/21 05:35:45;;;;;;;5.97;3.97;;;2.70;99.90;;;;;;5086753;28;20279;-70
2023/01/21 05:38:14;;;;;;;4.17;3.40;;;2.70;99.90;;;;;;5075821;28;20227;-89
2023/01/21 05:40:43;;;;;;;4.97;3.97;;;2.70;99.90;;;;;;5075543;28;20213;-71
2023/01/21 05:43:11;;;;;;;6.17;4.80;;;2.80;99.90;;;;;;5075446;28;20299;-84
2023/01/21 05:45:40;;;;;;;6.43;3.93;;;2.70;99.90;;;;;;5074245;28;20666;-69
2023/01/21 05:48:09;;;;;;;8.23;3.53;;;2.80;99.90;;;;;;5080684;28;20539;-70
2023/01/21 05:50:40;;;;;;;5.17;3.90;;;2.80;99.90;;;;;;5081086;28;20283;-69
2023/01/21 05:53:09;;;;;;;4.10;3.30;;;2.80;99.90;;;;;;5082108;28;20189;-85
2023/01/21 05:55:37;;;;;;;8.10;4.00;;;2.90;99.90;;;;;;5081559;28;20205;-81
2023/01/21 05:58:06;;;;;;;7.27;3.47;;;2.90;99.90;;;;;;5079887;28;20185;-78
2023/01/21 06:00:35;;;;;;;10.30;3.87;;;2.90;99.90;;;;;;5073427;28;20209;-70
2023/01/21 06:03:04;;;;;;;4.70;3.70;;;3.00;99.90;;;;;;5093607;28;20262;-88
2023/01/21 06:05:33;;;;;;;4.47;3.40;;;3.00;99.90;;;;;;5093707;28;20581;-83
2023/01/21 06:08:04;;;;;;;4.27;3.13;;;3.10;99.90;;;;;;5093310;28;20629;-84
2023/01/21 06:10:32;;;;;;;6.03;3.00;;;3.10;99.90;;;;;;5093110;28;20223;-72
2023/01/21 06:13:01;;;;;;;7.47;3.03;;;3.10;99.90;;;;;;5093291;28;20765;-82
2023/01/21 06:15:32;;;;;;;9.40;3.00;;;3.10;99.90;;;;;;5093550;28;20317;-70
2023/01/21 06:18:01;;;;;;;5.73;2.73;;;3.10;99.90;;;;;;5093201;28;20246;-83
2023/01/21 06:20:30;;;;;;;7.93;3.13;;;3.10;99.90;;;;;;5093151;28;20204;-84
2023/01/21 06:23:02;;;;;;;3.80;2.80;;;3.10;99.90;;;;;;5092904;28;20717;-79
2023/01/21 06:25:33;;;;;;;8.23;5.03;;;3.10;99.90;;;;;;5093158;28;20211;-82
2023/01/21 06:28:02;;;;;;;10.83;5.93;;;3.10;99.90;;;;;;5093034;28;20242;-83
2023/01/21 06:30:30;;;;;;;9.77;6.03;;;3.10;99.90;;;;;;5092353;28;20248;-76
2023/01/21 06:33:00;;;;;;;10.67;6.87;;;3.10;99.90;;;;;;5072189;28;20212;-70
2023/01/21 06:35:29;;;;;;;4.40;2.97;;;3.10;99.90;;;;;;5078927;28;20285;-87
2023/01/21 06:37:58;;;;;;;4.57;3.20;;;3.10;99.90;;;;;;5081348;28;20671;-69
2023/01/21 06:40:27;;;;;;;7.10;4.17;;;3.10;99.90;;;;;;5072464;28;20234;-71
2023/01/21 06:42:57;;;;;;;4.23;3.17;;;3.10;99.90;;;;;;5072356;28;20254;-70
2023/01/21 06:45:26;;;;;;;7.83;5.83;;;3.10;99.90;;;;;;5072196;28;20557;-70
2023/01/21 06:47:55;;;;;;;46.70;20.13;;;3.10;99.90;;;;;;5072176;28;20185;-85
2023/01/21 06:50:24;;;;;;;21.07;12.87;;;3.10;99.90;;;;;;5072192;28;20223;-83
2023/01/21 06:52:53;;;;;;;10.03;6.43;;;3.10;99.90;;;;;;5074379;28;20209;-70
2023/01/21 06:55:21;;;;;;;10.50;6.07;;;3.20;99.90;;;;;;5092368;28;20253;-70
2023/01/21 06:57:52;;;;;;;6.17;4.13;;;3.20;99.90;;;;;;5092508;28;20196;-72
2023/01/21 07:00:23;;;;;;;6.87;4.93;;;3.20;99.90;;;;;;5092146;28;20616;-71
2023/01/21 07:02:56;;;;;;;6.83;4.47;;;3.20;99.90;;;;;;5082420;28;20236;-70
2023/01/21 07:05:25;;;;;;;7.90;4.63;;;3.20;99.90;;;;;;5093346;28;20197;-71
2023/01/21 07:07:55;;;;;;;5.37;3.30;;;3.20;99.90;;;;;;5090255;28;20200;-72
2023/01/21 07:10:24;;;;;;;6.90;3.37;;;3.20;99.90;;;;;;5089879;28;20214;-81
2023/01/21 07:12:55;;;;;;;10.97;6.00;;;3.20;99.90;;;;;;5095523;28;20197;-72
2023/01/21 07:15:29;;;;;;;6.67;3.97;;;3.20;99.90;;;;;;5103110;28;20262;-73
2023/01/21 07:17:58;;;;;;;7.20;4.13;;;3.20;99.90;;;;;;5092657;28;20229;-79
2023/01/21 07:20:27;;;;;;;8.23;3.70;;;3.20;99.90;;;;;;5092258;28;20280;-78
2023/01/21 07:22:56;;;;;;;7.03;3.10;;;3.20;99.90;;;;;;5074350;28;20205;-73
2023/01/21 07:25:25;;;;;;;2.77;2.57;;;3.20;99.90;;;;;;5092513;28;20622;-73
2023/01/21 07:27:54;;;;;;;6.93;2.80;;;3.20;99.90;;;;;;5092328;28;20192;-74
2023/01/21 07:30:24;;;;;;;3.27;2.20;;;3.20;99.90;;;;;;5092491;28;20216;-77
2023/01/21 07:32:53;;;;;;;5.37;3.23;;;3.30;99.90;;;;;;5092477;28;20205;-77
2023/01/21 07:35:22;;;;;;;5.60;2.90;;;3.30;99.90;;;;;;5092225;28;20193;-81
2023/01/21 07:37:51;;;;;;;5.37;2.80;;;3.20;99.90;;;;;;5092321;28;20281;-77
2023/01/21 07:40:20;;;;;;;5.50;3.13;;;3.30;99.90;;;;;;5089932;28;20671;-73
2023/01/21 07:42:52;;;;;;;5.90;3.20;;;3.30;99.90;;;;;;5092564;28;20201;-77
2023/01/21 07:45:21;;;;;;;7.80;2.50;;;3.30;99.90;;;;;;5092108;28;20281;-74
2023/01/21 07:47:52;;;;;;;4.23;3.20;;;3.30;99.90;;;;;;5092334;28;20655;-73
2023/01/21 07:50:21;;;;;;;4.90;3.33;;;3.30;99.90;;;;;;5092155;28;20276;-73
2023/01/21 07:52:59;;;;;;;5.80;3.00;;;3.40;99.90;;;;;;5092424;28;20591;-72
2023/01/21 07:55:29;;;;;;;5.07;2.73;;;3.40;99.90;;;;;;5092364;28;20193;-72
2023/01/21 07:57:58;;;;;;;3.80;2.90;;;3.40;99.90;;;;;;5092203;28;20189;-72
2023/01/21 08:00:28;;;;;;;5.67;3.77;;;3.40;99.90;;;;;;5092169;28;20223;-71
2023/01/21 08:02:58;;;;;;;4.63;3.13;;;3.40;99.90;;;;;;5092468;28;20235;-71
2023/01/21 08:05:27;;;;;;;10.40;4.97;;;3.40;99.90;;;;;;5089984;28;20224;-71
2023/01/21 08:07:58;;;;;;;7.80;4.13;;;3.40;99.90;;;;;;5092692;28;20199;-74
2023/01/21 08:10:27;;;;;;;6.03;3.10;;;3.50;99.90;;;;;;5092868;28;20196;-78
2023/01/21 08:12:56;;;;;;;5.43;3.33;;;3.50;99.90;;;;;;5092558;28;20204;-74
2023/01/21 08:15:25;;;;;;;6.33;2.87;;;3.40;99.90;;;;;;5093749;28;20267;-74
2023/01/21 08:17:55;;;;;;;6.23;3.23;;;3.50;99.90;;;;;;5093223;28;20198;-76
2023/01/21 08:20:25;;;;;;;6.27;3.93;;;3.50;99.90;;;;;;5094534;28;20212;-75
2023/01/21 08:23:06;;;;;;;7.87;4.13;;;3.50;99.90;;;;;;5092074;28;20199;-74
2023/01/21 08:25:44;;;;;;;;;;;;;;;;;;;;;
2023/01/21 08:28:17;;;;;;;6.13;3.43;;;3.50;99.90;;;;;;5091896;28;20193;-75
2023/01/21 08:30:46;;;;;;;8.13;3.50;;;3.50;99.90;;;;;;5089391;28;20195;-79
2023/01/21 08:33:15;;;;;;;7.37;3.57;;;3.50;99.90;;;;;;5095051;28;20193;-86
2023/01/21 08:35:46;;;;;;;6.93;3.40;;;3.60;99.90;;;;;;5095663;28;20228;-75
2023/01/21 08:38:15;;;;;;;6.17;3.20;;;3.60;99.90;;;;;;5095698;28;20658;-74
2023/01/21 08:40:44;;;;;;;10.00;2.83;;;3.70;99.90;;;;;;5095832;28;20289;-71
2023/01/21 08:43:13;;;;;;;6.40;3.63;;;3.70;99.90;;;;;;5095433;28;20181;-78
2023/01/21 08:45:42;;;;;;;5.17;3.33;;;3.70;99.90;;;;;;5095614;28;20228;-75
2023/01/21 08:48:11;;;;;;;5.67;3.33;;;3.70;99.90;;;;;;5095610;28;20207;-83
2023/01/21 08:50:40;;;;;;;8.20;3.73;;;3.80;99.90;;;;;;5095570;28;20197;-73
2023/01/21 08:53:11;;;;;;;7.03;3.20;;;3.80;99.90;;;;;;5095522;28;20184;-73
2023/01/21 08:55:40;;;;;;;8.03;3.33;;;3.80;99.90;;;;;;5093150;28;20196;-77
2023/01/21 08:58:09;;;;;;;4.43;2.97;;;3.80;99.90;;;;;;5095310;28;20190;-74
2023/01/21 09:00:38;;;;;;;10.90;6.17;;;3.80;99.90;;;;;;5094881;28;20196;-80
2023/01/21 09:03:07;;;;;;;8.63;4.53;;;3.80;99.90;;;;;;5095115;28;20218;-72
2023/01/21 09:05:36;;;;;;;5.00;3.60;;;3.80;99.90;;;;;;5095117;28;20578;-73
2023/01/21 09:08:05;;;;;;;5.33;3.37;;;3.80;99.90;;;;;;5095174;28;20198;-73
2023/01/21 09:13:22;;;;;;;3.63;3.03;;;3.90;99.90;;;;;;5076746;28;20207;-72
2023/01/21 09:15:50;;;;;;;6.00;4.30;;;4.00;99.20;;;;;;5095125;28;20190;-75
2023/01/21 09:18:19;;;;;;;8.50;3.83;;;4.00;99.40;;;;;;5094859;28;20197;-76
2023/01/21 09:21:01;;;;;;;3.43;3.03;;;4.00;99.00;;;;;;5092359;28;20190;-72
2023/01/21 09:23:32;;;;;;;6.80;4.00;;;3.90;98.80;;;;;;5094929;28;20271;-73
2023/01/21 09:26:05;;;;;;;4.60;3.00;;;4.00;99.20;;;;;;5094603;28;20228;-72
2023/01/21 09:28:35;;;;;;;6.97;3.37;;;4.10;99.60;;;;;;5095075;28;20610;-77
2023/01/21 09:31:07;;;;;;;4.97;3.47;;;4.10;98.80;;;;;;5094569;28;20723;-71
2023/01/21 09:33:37;;;;;;;10.30;6.73;;;4.00;98.10;;;;;;5095160;28;20199;-79
2023/01/21 09:36:08;;;;;;;12.07;7.10;;;4.00;97.90;;;;;;5094505;28;20246;-84
2023/01/21 09:38:37;;;;;;;10.23;6.40;;;4.10;97.90;;;;;;5094514;28;20282;-73
2023/01/21 09:41:25;;;;;;;6.63;4.50;;;4.20;97.80;;;;;;5094576;28;20268;-79
2023/01/21 09:44:01;;;;;;;10.97;4.67;;;4.20;97.00;;;;;;5094022;28;20195;-72
2023/01/21 09:46:40;;;;;;;9.33;5.13;;;4.20;96.80;;;;;;5092249;28;20189;-70
2023/01/21 09:49:16;;;;;;;8.23;5.83;;;4.40;97.50;;;;;;5094659;28;20666;-72
2023/01/21 09:52:01;;;;;;;6.53;4.43;;;4.50;95.30;;;;;;5094054;28;20563;-78
2023/01/21 09:54:32;;;;;;;5.23;3.27;;;4.40;94.50;;;;;;5094131;28;20232;-75
2023/01/21 09:57:37;;;;;;;8.77;4.30;;;4.40;94.30;;;;;;5094199;28;20264;-72
2023/01/21 10:00:31;;;;;;;5.33;3.50;;;4.30;95.10;;;;;;5094073;28;20223;-72
2023/01/21 10:03:09;;;;;;;9.40;3.17;;;4.20;95.40;;;;;;5093957;28;20258;-72
2023/01/21 10:06:02;;;;;;;8.27;3.50;;;4.20;96.60;;;;;;5093752;28;20727;-72
2023/01/21 10:08:37;;;;;;;3.20;2.90;;;4.30;97.70;;;;;;5094013;28;20212;-73
2023/01/21 10:11:20;;;;;;;8.00;3.87;;;4.30;97.10;;;;;;5093843;28;20677;-73
2023/01/21 10:14:12;;;;;;;7.43;3.70;;;4.30;97.50;;;;;;5073494;28;20198;-73
2023/01/21 10:16:50;;;;;;;8.37;4.17;;;4.30;98.40;;;;;;5073544;28;20196;-74
2023/01/21 10:19:24;;;;;;;7.90;5.13;;;4.30;99.20;;;;;;5073587;28;20645;-72
2023/01/21 10:21:56;;;;;;;28.27;14.00;;;4.40;99.60;;;;;;5073436;28;20273;-73
2023/01/21 10:24:29;;;;;;;6.90;3.53;;;4.50;99.90;;;;;;5073402;28;20204;-73
2023/01/21 10:26:59;;;;;;;6.17;3.93;;;4.30;99.90;;;;;;5073782;28;20277;-71
2023/01/21 10:29:30;;;;;;;5.87;3.93;;;4.40;99.90;;;;;;5073302;28;20219;-74
2023/01/21 10:32:04;;;;;;;6.37;4.00;;;4.40;99.90;;;;;;5073602;28;20219;-71
2023/01/21 10:34:38;;;;;;;17.33;7.33;;;4.50;99.90;;;;;;5073199;28;20187;-72
2023/01/21 10:37:17;;;;;;;19.27;8.40;;;4.60;99.90;;;;;;5075880;28;20204;-71
2023/01/21 10:39:55;;;;;;;14.63;6.33;;;4.60;99.90;;;;;;5093290;28;20198;-71
2023/01/21 10:42:43;;;;;;;25.97;13.23;;;4.60;99.90;;;;;;5092984;28;20193;-72
2023/01/21 10:45:24;;;;;;;10.73;4.83;;;4.40;99.90;;;;;;5093088;28;20309;-74
2023/01/21 10:48:01;;;;;;;28.57;14.10;;;4.40;99.90;;;;;;5093263;28;20229;-71
2023/01/21 10:50:40;;;;;;;12.40;8.03;;;4.40;99.90;;;;;;5093231;28;20209;-71
2023/01/21 10:53:19;;;;;;;30.00;13.67;;;4.40;99.90;;;;;;5093144;28;20217;-71
2023/01/21 10:56:04;;;;;;;48.23;24.37;;;4.30;99.90;;;;;;5092627;28;20668;-80
2023/01/21 10:58:37;;;;;;;7.40;5.27;;;4.20;99.90;;;;;;5092957;28;20277;-72
2023/01/21 11:01:15;;;;;;;9.10;7.50;;;4.20;99.90;;;;;;5093372;28;20200;-72
2023/01/21 11:03:47;;;;;;;7.53;4.83;;;4.20;99.90;;;;;;5090911;28;20278;-72
2023/01/21 11:06:18;;;;;;;8.53;4.30;;;4.10;99.90;;;;;;5075087;28;20634;-73
2023/01/21 11:08:51;;;;;;;10.47;5.53;;;4.10;99.90;;;;;;5092697;28;20261;-73
2023/01/21 11:11:27;;;;;;;14.00;5.17;;;4.20;99.90;;;;;;5092944;28;20210;-71
2023/01/21 11:13:56;;;;;;;10.50;6.03;;;4.20;99.90;;;;;;5074251;28;20235;-72
2023/01/21 11:16:35;;;;;;;19.37;12.83;;;4.20;99.90;;;;;;5092893;28;20186;-71
2023/01/21 11:19:05;;;;;;;12.57;8.80;;;4.20;99.90;;;;;;5092856;28;20214;-82
2023/01/21 11:21:35;;;;;;;13.13;8.00;;;4.20;99.90;;;;;;5092693;28;20278;-72
2023/01/21 11:24:20;;;;;;;40.83;18.17;;;4.10;99.90;;;;;;5092608;28;20218;-78
2023/01/21 11:26:53;;;;;;;11.47;4.83;;;4.20;99.90;;;;;;5092878;28;20217;-73
2023/01/21 11:29:24;;;;;;;10.93;4.23;;;4.20;99.90;;;;;;5090227;28;20195;-72
2023/01/21 11:32:03;;;;;;;8.43;5.27;;;4.10;99.90;;;;;;5092641;28;20195;-71
2023/01/21 11:34:33;;;;;;;8.00;4.03;;;4.10;99.90;;;;;;5092517;28;20193;-73
2023/01/21 11:37:04;;;;;;;8.90;5.03;;;4.20;99.90;;;;;;5092582;28;20663;-74
2023/01/21 11:39:37;;;;;;;16.60;11.13;;;4.20;99.90;;;;;;5092501;28;20191;-80
2023/01/21 11:42:15;;;;;;;12.80;9.13;;;4.20;99.90;;;;;;5092688;28;20247;-72
2023/01/21 11:44:53;;;;;;;9.23;8.00;;;4.30;99.90;;;;;;5092790;28;20202;-72
2023/01/21 11:47:39;;;;;;;13.30;6.27;;;4.30;99.90;;;;;;5092377;28;20220;-84
2023/01/21 11:50:16;;;;;;;9.90;5.00;;;4.20;99.90;;;;;;5092457;28;20214;-84
2023/01/21 11:52:46;;;;;;;15.93;4.67;;;4.20;99.90;;;;;;5090848;28;20225;-72
2023/01/21 11:55:22;;;;;;;7.37;4.87;;;4.30;99.90;;;;;;5092520;28;20617;-72
2023/01/21 11:57:53;;;;;;;5.60;3.87;;;4.30;99.90;;;;;;5092440;28;20276;-73
2023/01/21 12:00:25;;;;;;;12.93;6.03;;;4.30;99.90;;;;;;5092315;28;20195;-72
2023/01/21 12:02:58;;;;;;;9.93;4.70;;;4.30;99.90;;;;;;5092286;28;20301;-73
2023/01/21 12:05:32;;;;;;;6.17;4.47;;;4.30;99.90;;;;;;5092214;28;20196;-72
2023/01/21 12:08:02;;;;;;;19.43;7.17;;;4.30;99.90;;;;;;5095057;28;20200;-78
2023/01/21 12:10:35;;;;;;;10.00;4.90;;;4.30;99.90;;;;;;5096389;28;20198;-74
2023/01/21 12:13:27;;;;;;;37.57;15.43;;;4.30;99.90;;;;;;5096007;28;20195;-74
2023/01/21 12:16:30;;;;;;;24.33;11.63;;;4.20;99.90;;;;;;5033874;28;20603;-72
2023/01/21 12:19:40;;;;;;;60.43;29.07;;;4.30;99.90;;;;;;4992224;28;20282;-73
2023/01/21 12:22:31;;;;;;;83.27;34.23;;;4.20;99.90;;;;;;4994243;28;20681;-72
2023/01/21 12:25:27;;;;;;;73.10;31.50;;;4.20;99.90;;;;;;4994273;28;20285;-74
2023/01/21 12:28:12;;;;;;;39.87;18.37;;;4.20;99.90;;;;;;4994115;28;20307;-73
2023/01/21 12:30:51;;;;;;;46.07;22.77;;;4.20;99.90;;;;;;4994097;28;20676;-74
2023/01/21 12:33:25;;;;;;;13.60;9.07;;;4.30;99.90;;;;;;4994084;28;20710;-73
2023/01/21 12:35:58;;;;;;;45.33;21.20;;;4.20;99.90;;;;;;4994223;28;20665;-73
2023/01/21 12:38:32;;;;;;;29.93;14.27;;;4.20;99.90;;;;;;4994117;28;20202;-73
2023/01/21 12:41:05;;;;;;;9.37;7.27;;;4.30;99.90;;;;;;4993971;28;20700;-83
2023/01/21 12:43:37;;;;;;;17.80;8.90;;;4.20;99.90;;;;;;4992053;28;20202;-72
2023/01/21 12:46:10;;;;;;;13.47;6.20;;;4.30;99.90;;;;;;4993918;28;20644;-73
2023/01/21 12:48:44;;;;;;;13.27;6.63;;;4.30;99.90;;;;;;4993690;28;20223;-76
2023/01/21 12:51:20;;;;;;;8.13;4.80;;;4.10;99.90;;;;;;4993948;28;20321;-72
2023/01/21 12:53:54;;;;;;;14.27;7.20;;;4.10;99.90;;;;;;5076265;28;20210;-80
2023/01/21 12:56:32;;;;;;;12.23;6.37;;;4.10;99.90;;;;;;5095503;28;20281;-73
2023/01/21 12:59:10;;;;;;;7.03;4.50;;;4.20;99.90;;;;;;5095402;28;20291;-72
2023/01/21 13:01:51;;;;;;;13.80;6.50;;;4.10;99.90;;;;;;5095277;28;20279;-72
2023/01/21 13:04:48;;;;;;;8.90;7.00;;;4.10;99.90;;;;;;5095467;28;20657;-71
2023/01/21 13:07:28;;;;;;;10.23;5.57;;;4.00;99.90;;;;;;5052723;28;20594;-81
2023/01/21 13:10:06;;;;;;;16.90;8.40;;;4.00;99.90;;;;;;5050200;28;20196;-80
2023/01/21 13:12:38;;;;;;;13.03;7.43;;;4.00;99.90;;;;;;5052732;28;20208;-73
2023/01/21 13:15:16;;;;;;;10.53;5.83;;;4.00;99.90;;;;;;5052647;28;20202;-73
2023/01/21 13:17:51;;;;;;;9.07;5.03;;;3.90;99.90;;;;;;5051969;28;20215;-73
2023/01/21 13:20:21;;;;;;;11.67;6.03;;;3.90;99.90;;;;;;5052504;28;20280;-79
2023/01/21 13:23:01;;;;;;;8.20;5.20;;;4.00;99.90;;;;;;5052491;28;20201;-73